sensor_id;sensor_type;location;lat;lon;timestamp;temperature;humidity
14614;DHT22;7393;51.446;6.800;2023-11-22T00:00:27;7.00;1.00
14614;DHT22;7393;51.446;6.800;2023-11-22T00:02:54;7.00;1.00
14614;DHT22;7393;51.446;6.800;2023-11-22T00:05:20;7.00;1.00
14614;DHT22;7393;51.446;6.800;2023-11-22T00:07:49;7.00;1.00
14614;DHT22;7393;51.446;6.800;2023-11-22T00:10:16;6.90;1.00
14614;DHT22;7393;51.446;6.800;2023-11-22T00:12:43;6.90;1.00
14614;DHT22;7393;51.446;6.800;2023-11-22T00:15:10;6.90;1.00
14614;DHT22;7393;51.446;6.800;2023-11-22T00:17:37;6.80;1.00
14614;DHT22;7393;51.446;6.800;2023-11-22T00:20:05;6.80;1.00
14614;DHT22;7393;51.446;6.800;2023-11-22T00:22:33;6.80;1.00
14614;DHT22;7393;51.446;6.800;2023-11-22T00:25:02;6.80;1.00
14614;DHT22;7393;51.446;6.800;2023-11-22T00:27:29;6.80;1.00
14614;DHT22;7393;51.446;6.800;2023-11-22T00:29:57;6.80;1.00
14614;DHT22;7393;51.446;6.800;2023-11-22T00:32:23;6.80;1.00
14614;DHT22;7393;51.446;6.800;2023-11-22T00:34:51;6.80;1.00
14614;DHT22;7393;51.446;6.800;2023-11-22T00:37:18;6.70;1.00
14614;DHT22;7393;51.446;6.800;2023-11-22T00:39:45;6.70;1.00
14614;DHT22;7393;51.446;6.800;2023-11-22T00:42:13;6.70;1.00
14614;DHT22;7393;51.446;6.800;2023-11-22T00:44:40;6.60;1.00
14614;DHT22;7393;51.446;6.800;2023-11-22T00:47:07;6.60;1.00
14614;DHT22;7393;51.446;6.800;2023-11-22T00:49:34;6.60;1.00
14614;DHT22;7393;51.446;6.800;2023-11-22T00:52:01;6.60;1.00
14614;DHT22;7393;51.446;6.800;2023-11-22T00:54:28;6.50;1.00
14614;DHT22;7393;51.446;6.800;2023-11-22T00:56:55;6.50;1.00
14614;DHT22;7393;51.446;6.800;2023-11-22T00:59:23;6.50;1.00
14614;DHT22;7393;51.446;6.800;2023-11-22T01:01:50;6.50;1.00
14614;DHT22;7393;51.446;6.800;2023-11-22T01:04:17;6.50;1.00
14614;DHT22;7393;51.446;6.800;2023-11-22T01:06:43;6.50;1.00
14614;DHT22;7393;51.446;6.800;2023-11-22T01:09:10;6.40;1.00
14614;DHT22;7393;51.446;6.800;2023-11-22T01:11:39;6.40;1.00
14614;DHT22;7393;51.446;6.800;2023-11-22T01:14:06;6.30;1.00
14614;DHT22;7393;51.446;6.800;2023-11-22T01:16:34;6.30;1.00
14614;DHT22;7393;51.446;6.800;2023-11-22T01:19:02;6.20;1.00
14614;DHT22;7393;51.446;6.800;2023-11-22T01:21:29;6.10;1.00
14614;DHT22;7393;51.446;6.800;2023-11-22T01:23:56;6.10;1.00
14614;DHT22;7393;51.446;6.800;2023-11-22T01:26:23;6.00;1.00
14614;DHT22;7393;51.446;6.800;2023-11-22T01:28:50;6.00;1.00
14614;DHT22;7393;51.446;6.800;2023-11-22T01:31:17;5.90;1.00
14614;DHT22;7393;51.446;6.800;2023-11-22T01:33:47;5.90;1.00
14614;DHT22;7393;51.446;6.800;2023-11-22T01:36:14;5.80;1.00
14614;DHT22;7393;51.446;6.800;2023-11-22T01:38:41;5.80;1.00
14614;DHT22;7393;51.446;6.800;2023-11-22T01:41:10;5.70;1.00
14614;DHT22;7393;51.446;6.800;2023-11-22T01:43:38;5.70;1.00
14614;DHT22;7393;51.446;6.800;2023-11-22T01:46:06;5.60;1.00
14614;DHT22;7393;51.446;6.800;2023-11-22T01:48:34;5.60;1.00
14614;DHT22;7393;51.446;6.800;2023-11-22T01:51:03;5.60;1.00
14614;DHT22;7393;51.446;6.800;2023-11-22T01:53:31;5.60;1.00
14614;DHT22;7393;51.446;6.800;2023-11-22T01:55:58;5.50;1.00
14614;DHT22;7393;51.446;6.800;2023-11-22T01:58:25;5.50;1.00
14614;DHT22;7393;51.446;6.800;2023-11-22T02:00:52;5.50;1.00
14614;DHT22;7393;51.446;6.800;2023-11-22T02:03:19;5.50;1.00
14614;DHT22;7393;51.446;6.800;2023-11-22T02:05:46;5.50;1.00
14614;DHT22;7393;51.446;6.800;2023-11-22T02:08:14;5.50;1.00
14614;DHT22;7393;51.446;6.800;2023-11-22T02:10:41;5.40;1.00
14614;DHT22;7393;51.446;6.800;2023-11-22T02:13:10;5.40;1.00
14614;DHT22;7393;51.446;6.800;2023-11-22T02:15:37;5.30;1.00
14614;DHT22;7393;51.446;6.800;2023-11-22T02:18:04;5.30;1.00
14614;DHT22;7393;51.446;6.800;2023-11-22T02:20:32;5.30;1.00
14614;DHT22;7393;51.446;6.800;2023-11-22T02:23:07;5.20;1.00
14614;DHT22;7393;51.446;6.800;2023-11-22T02:25:35;5.20;1.00
14614;DHT22;7393;51.446;6.800;2023-11-22T02:28:02;5.20;1.00
14614;DHT22;7393;51.446;6.800;2023-11-22T02:30:29;5.20;1.00
14614;DHT22;7393;51.446;6.800;2023-11-22T02:32:57;5.20;1.00
14614;DHT22;7393;51.446;6.800;2023-11-22T02:35:23;5.20;1.00
14614;DHT22;7393;51.446;6.800;2023-11-22T02:37:52;5.10;1.00
14614;DHT22;7393;51.446;6.800;2023-11-22T02:40:21;5.10;1.00
14614;DHT22;7393;51.446;6.800;2023-11-22T02:42:49;5.10;1.00
14614;DHT22;7393;51.446;6.800;2023-11-22T02:45:18;5.10;1.00
14614;DHT22;7393;51.446;6.800;2023-11-22T02:47:45;5.10;1.00
14614;DHT22;7393;51.446;6.800;2023-11-22T02:50:12;5.10;1.00
14614;DHT22;7393;51.446;6.800;2023-11-22T02:52:39;5.10;1.00
14614;DHT22;7393;51.446;6.800;2023-11-22T02:55:07;5.00;1.00
14614;DHT22;7393;51.446;6.800;2023-11-22T02:57:36;5.00;1.00
14614;DHT22;7393;51.446;6.800;2023-11-22T03:00:04;5.00;1.00
14614;DHT22;7393;51.446;6.800;2023-11-22T03:02:32;5.00;1.00
14614;DHT22;7393;51.446;6.800;2023-11-22T03:04:59;4.90;1.00
14614;DHT22;7393;51.446;6.800;2023-11-22T03:07:26;5.00;1.00
14614;DHT22;7393;51.446;6.800;2023-11-22T03:09:53;5.00;1.00
14614;DHT22;7393;51.446;6.800;2023-11-22T03:12:24;5.00;1.00
14614;DHT22;7393;51.446;6.800;2023-11-22T03:14:52;4.90;1.00
14614;DHT22;7393;51.446;6.800;2023-11-22T03:17:24;4.90;1.00
14614;DHT22;7393;51.446;6.800;2023-11-22T03:19:50;4.90;1.00
14614;DHT22;7393;51.446;6.800;2023-11-22T03:22:17;4.90;1.00
14614;DHT22;7393;51.446;6.800;2023-11-22T03:24:45;4.90;1.00
14614;DHT22;7393;51.446;6.800;2023-11-22T03:27:11;4.90;1.00
14614;DHT22;7393;51.446;6.800;2023-11-22T03:29:38;4.90;1.00
14614;DHT22;7393;51.446;6.800;2023-11-22T03:32:06;4.90;1.00
14614;DHT22;7393;51.446;6.800;2023-11-22T03:34:33;5.00;1.00
14614;DHT22;7393;51.446;6.800;2023-11-22T03:37:00;5.00;1.00
14614;DHT22;7393;51.446;6.800;2023-11-22T03:39:27;4.90;1.00
14614;DHT22;7393;51.446;6.800;2023-11-22T03:41:54;4.90;1.00
14614;DHT22;7393;51.446;6.800;2023-11-22T03:44:21;4.90;1.00
14614;DHT22;7393;51.446;6.800;2023-11-22T03:46:48;4.80;1.00
14614;DHT22;7393;51.446;6.800;2023-11-22T03:49:16;4.80;1.00
14614;DHT22;7393;51.446;6.800;2023-11-22T03:51:43;4.80;1.00
14614;DHT22;7393;51.446;6.800;2023-11-22T03:54:10;4.70;1.00
14614;DHT22;7393;51.446;6.800;2023-11-22T03:56:38;4.70;1.00
14614;DHT22;7393;51.446;6.800;2023-11-22T03:59:04;4.70;1.00
14614;DHT22;7393;51.446;6.800;2023-11-22T04:01:30;4.60;1.00
14614;DHT22;7393;51.446;6.800;2023-11-22T04:03:57;4.60;1.00
14614;DHT22;7393;51.446;6.800;2023-11-22T04:06:25;4.60;1.00
14614;DHT22;7393;51.446;6.800;2023-11-22T04:08:53;4.50;1.00
14614;DHT22;7393;51.446;6.800;2023-11-22T04:11:20;4.50;1.00
14614;DHT22;7393;51.446;6.800;2023-11-22T04:13:47;4.50;1.00
14614;DHT22;7393;51.446;6.800;2023-11-22T04:16:14;4.40;1.00
14614;DHT22;7393;51.446;6.800;2023-11-22T04:18:42;4.40;1.00
14614;DHT22;7393;51.446;6.800;2023-11-22T04:21:09;4.30;1.00
14614;DHT22;7393;51.446;6.800;2023-11-22T04:23:38;4.30;1.00
14614;DHT22;7393;51.446;6.800;2023-11-22T04:26:04;4.20;1.00
14614;DHT22;7393;51.446;6.800;2023-11-22T04:28:32;4.20;1.00
14614;DHT22;7393;51.446;6.800;2023-11-22T04:31:00;4.20;1.00
14614;DHT22;7393;51.446;6.800;2023-11-22T04:33:27;4.10;1.00
14614;DHT22;7393;51.446;6.800;2023-11-22T04:35:54;4.10;1.00
14614;DHT22;7393;51.446;6.800;2023-11-22T04:38:21;4.10;1.00
14614;DHT22;7393;51.446;6.800;2023-11-22T04:40:49;4.10;1.00
14614;DHT22;7393;51.446;6.800;2023-11-22T04:43:16;4.10;1.00
14614;DHT22;7393;51.446;6.800;2023-11-22T04:45:43;4.10;1.00
14614;DHT22;7393;51.446;6.800;2023-11-22T04:48:10;4.10;1.00
14614;DHT22;7393;51.446;6.800;2023-11-22T04:50:37;4.10;1.00
14614;DHT22;7393;51.446;6.800;2023-11-22T04:53:04;4.10;1.00
14614;DHT22;7393;51.446;6.800;2023-11-22T04:55:30;4.00;1.00
14614;DHT22;7393;51.446;6.800;2023-11-22T04:57:59;4.00;1.00
14614;DHT22;7393;51.446;6.800;2023-11-22T05:00:25;4.00;1.00
14614;DHT22;7393;51.446;6.800;2023-11-22T05:02:52;4.00;1.00
14614;DHT22;7393;51.446;6.800;2023-11-22T05:05:20;4.00;1.00
14614;DHT22;7393;51.446;6.800;2023-11-22T05:07:47;4.00;1.00
14614;DHT22;7393;51.446;6.800;2023-11-22T05:10:13;4.00;1.00
14614;DHT22;7393;51.446;6.800;2023-11-22T05:12:42;4.00;1.00
14614;DHT22;7393;51.446;6.800;2023-11-22T05:15:11;4.00;1.00
14614;DHT22;7393;51.446;6.800;2023-11-22T05:17:39;4.00;1.00
14614;DHT22;7393;51.446;6.800;2023-11-22T05:20:07;4.00;1.00
14614;DHT22;7393;51.446;6.800;2023-11-22T05:22:35;4.00;1.00
14614;DHT22;7393;51.446;6.800;2023-11-22T05:25:03;4.00;1.00
14614;DHT22;7393;51.446;6.800;2023-11-22T05:27:29;4.00;1.00
14614;DHT22;7393;51.446;6.800;2023-11-22T05:29:58;4.00;1.00
14614;DHT22;7393;51.446;6.800;2023-11-22T05:32:27;4.00;1.00
14614;DHT22;7393;51.446;6.800;2023-11-22T05:34:54;3.90;1.00
14614;DHT22;7393;51.446;6.800;2023-11-22T05:37:21;3.90;1.00
14614;DHT22;7393;51.446;6.800;2023-11-22T05:39:47;3.90;1.00
14614;DHT22;7393;51.446;6.800;2023-11-22T05:42:14;3.80;1.00
14614;DHT22;7393;51.446;6.800;2023-11-22T05:44:41;3.80;1.00
14614;DHT22;7393;51.446;6.800;2023-11-22T05:47:08;3.80;1.00
14614;DHT22;7393;51.446;6.800;2023-11-22T05:49:36;3.70;1.00
14614;DHT22;7393;51.446;6.800;2023-11-22T05:52:04;3.70;1.00
14614;DHT22;7393;51.446;6.800;2023-11-22T05:54:31;3.70;1.00
14614;DHT22;7393;51.446;6.800;2023-11-22T05:57:00;3.60;1.00
14614;DHT22;7393;51.446;6.800;2023-11-22T05:59:27;3.60;1.00
14614;DHT22;7393;51.446;6.800;2023-11-22T06:01:54;3.60;1.00
14614;DHT22;7393;51.446;6.800;2023-11-22T06:04:21;3.60;1.00
14614;DHT22;7393;51.446;6.800;2023-11-22T06:06:49;3.50;1.00
14614;DHT22;7393;51.446;6.800;2023-11-22T06:09:16;3.50;1.00
14614;DHT22;7393;51.446;6.800;2023-11-22T06:11:43;3.50;1.00
14614;DHT22;7393;51.446;6.800;2023-11-22T06:14:10;3.50;1.00
14614;DHT22;7393;51.446;6.800;2023-11-22T06:16:37;3.40;1.00
14614;DHT22;7393;51.446;6.800;2023-11-22T06:19:04;3.40;1.00
14614;DHT22;7393;51.446;6.800;2023-11-22T06:21:30;3.40;1.00
14614;DHT22;7393;51.446;6.800;2023-11-22T06:23:59;3.40;1.00
14614;DHT22;7393;51.446;6.800;2023-11-22T06:26:27;3.30;1.00
14614;DHT22;7393;51.446;6.800;2023-11-22T06:28:54;3.30;1.00
14614;DHT22;7393;51.446;6.800;2023-11-22T06:31:21;3.30;1.00
14614;DHT22;7393;51.446;6.800;2023-11-22T06:33:48;3.30;1.00
14614;DHT22;7393;51.446;6.800;2023-11-22T06:36:15;3.20;1.00
14614;DHT22;7393;51.446;6.800;2023-11-22T06:38:41;3.30;1.00
14614;DHT22;7393;51.446;6.800;2023-11-22T06:41:10;3.30;1.00
14614;DHT22;7393;51.446;6.800;2023-11-22T06:43:36;3.30;1.00
14614;DHT22;7393;51.446;6.800;2023-11-22T06:46:03;3.20;1.00
14614;DHT22;7393;51.446;6.800;2023-11-22T06:48:32;3.20;1.00
14614;DHT22;7393;51.446;6.800;2023-11-22T06:50:59;3.20;1.00
14614;DHT22;7393;51.446;6.800;2023-11-22T06:53:26;3.20;1.00
14614;DHT22;7393;51.446;6.800;2023-11-22T06:55:53;3.20;1.00
14614;DHT22;7393;51.446;6.800;2023-11-22T06:58:21;3.20;1.00
14614;DHT22;7393;51.446;6.800;2023-11-22T07:00:48;3.20;1.00
14614;DHT22;7393;51.446;6.800;2023-11-22T07:03:15;3.20;1.00
14614;DHT22;7393;51.446;6.800;2023-11-22T07:05:41;3.20;1.00
14614;DHT22;7393;51.446;6.800;2023-11-22T07:08:08;3.10;1.00
14614;DHT22;7393;51.446;6.800;2023-11-22T07:10:36;3.10;1.00
14614;DHT22;7393;51.446;6.800;2023-11-22T07:13:03;3.10;1.00
14614;DHT22;7393;51.446;6.800;2023-11-22T07:15:31;3.10;1.00
14614;DHT22;7393;51.446;6.800;2023-11-22T07:17:58;3.10;1.00
14614;DHT22;7393;51.446;6.800;2023-11-22T07:20:25;3.10;1.00
14614;DHT22;7393;51.446;6.800;2023-11-22T07:22:52;3.10;1.00
14614;DHT22;7393;51.446;6.800;2023-11-22T07:25:23;3.10;1.00
14614;DHT22;7393;51.446;6.800;2023-11-22T07:27:51;3.10;1.00
14614;DHT22;7393;51.446;6.800;2023-11-22T07:30:18;3.10;1.00
14614;DHT22;7393;51.446;6.800;2023-11-22T07:32:49;3.10;1.00
14614;DHT22;7393;51.446;6.800;2023-11-22T07:35:17;3.00;1.00
14614;DHT22;7393;51.446;6.800;2023-11-22T07:37:46;3.00;1.00
14614;DHT22;7393;51.446;6.800;2023-11-22T07:40:13;3.00;1.00
14614;DHT22;7393;51.446;6.800;2023-11-22T07:42:40;3.10;1.00
14614;DHT22;7393;51.446;6.800;2023-11-22T07:45:08;3.10;1.00
14614;DHT22;7393;51.446;6.800;2023-11-22T07:47:37;3.00;1.00
14614;DHT22;7393;51.446;6.800;2023-11-22T07:50:07;3.00;1.00
14614;DHT22;7393;51.446;6.800;2023-11-22T07:52:34;3.00;1.00
14614;DHT22;7393;51.446;6.800;2023-11-22T07:55:03;3.10;1.00
14614;DHT22;7393;51.446;6.800;2023-11-22T07:57:30;3.10;1.00
14614;DHT22;7393;51.446;6.800;2023-11-22T07:59:57;3.10;1.00
14614;DHT22;7393;51.446;6.800;2023-11-22T08:02:26;3.10;1.00
14614;DHT22;7393;51.446;6.800;2023-11-22T08:04:53;3.10;1.00
14614;DHT22;7393;51.446;6.800;2023-11-22T08:07:22;3.20;1.00
14614;DHT22;7393;51.446;6.800;2023-11-22T08:09:49;3.20;1.00
14614;DHT22;7393;51.446;6.800;2023-11-22T08:12:16;3.30;1.00
14614;DHT22;7393;51.446;6.800;2023-11-22T08:14:44;3.30;1.00
14614;DHT22;7393;51.446;6.800;2023-11-22T08:17:11;3.30;1.00
14614;DHT22;7393;51.446;6.800;2023-11-22T08:19:39;3.40;1.00
14614;DHT22;7393;51.446;6.800;2023-11-22T08:22:06;3.50;1.00
14614;DHT22;7393;51.446;6.800;2023-11-22T08:24:35;3.50;1.00
14614;DHT22;7393;51.446;6.800;2023-11-22T08:27:02;3.60;1.00
14614;DHT22;7393;51.446;6.800;2023-11-22T08:29:29;3.60;1.00
14614;DHT22;7393;51.446;6.800;2023-11-22T08:31:56;3.70;1.00
14614;DHT22;7393;51.446;6.800;2023-11-22T08:34:23;3.70;1.00
14614;DHT22;7393;51.446;6.800;2023-11-22T08:36:50;3.70;1.00
14614;DHT22;7393;51.446;6.800;2023-11-22T08:39:17;3.80;1.00
14614;DHT22;7393;51.446;6.800;2023-11-22T08:41:45;3.80;1.00
14614;DHT22;7393;51.446;6.800;2023-11-22T08:44:13;3.90;1.00
14614;DHT22;7393;51.446;6.800;2023-11-22T08:46:39;3.90;1.00
14614;DHT22;7393;51.446;6.800;2023-11-22T08:49:06;4.00;1.00
14614;DHT22;7393;51.446;6.800;2023-11-22T08:51:33;4.00;1.00
14614;DHT22;7393;51.446;6.800;2023-11-22T08:54:00;4.10;1.00
14614;DHT22;7393;51.446;6.800;2023-11-22T08:56:27;4.20;1.00
14614;DHT22;7393;51.446;6.800;2023-11-22T08:58:55;4.20;1.00
14614;DHT22;7393;51.446;6.800;2023-11-22T09:01:21;4.20;1.00
14614;DHT22;7393;51.446;6.800;2023-11-22T09:03:48;4.30;1.00
14614;DHT22;7393;51.446;6.800;2023-11-22T09:06:16;4.30;1.00
14614;DHT22;7393;51.446;6.800;2023-11-22T09:08:44;4.40;1.00
14614;DHT22;7393;51.446;6.800;2023-11-22T09:11:12;4.40;1.00
14614;DHT22;7393;51.446;6.800;2023-11-22T09:13:38;4.50;1.00
14614;DHT22;7393;51.446;6.800;2023-11-22T09:16:07;4.60;1.00
14614;DHT22;7393;51.446;6.800;2023-11-22T09:18:36;4.60;1.00
14614;DHT22;7393;51.446;6.800;2023-11-22T09:21:03;4.70;1.00
14614;DHT22;7393;51.446;6.800;2023-11-22T09:23:30;4.70;1.00
14614;DHT22;7393;51.446;6.800;2023-11-22T09:25:57;4.80;1.00
14614;DHT22;7393;51.446;6.800;2023-11-22T09:28:25;4.90;1.00
14614;DHT22;7393;51.446;6.800;2023-11-22T09:30:52;4.90;1.00
14614;DHT22;7393;51.446;6.800;2023-11-22T09:33:28;4.90;1.00
14614;DHT22;7393;51.446;6.800;2023-11-22T09:35:55;5.00;1.00
14614;DHT22;7393;51.446;6.800;2023-11-22T09:38:21;5.00;1.00
14614;DHT22;7393;51.446;6.800;2023-11-22T09:40:49;5.00;1.00
14614;DHT22;7393;51.446;6.800;2023-11-22T09:43:17;5.10;1.00
14614;DHT22;7393;51.446;6.800;2023-11-22T09:45:46;5.10;1.00
14614;DHT22;7393;51.446;6.800;2023-11-22T09:48:15;5.20;1.00
14614;DHT22;7393;51.446;6.800;2023-11-22T09:50:53;5.20;1.00
14614;DHT22;7393;51.446;6.800;2023-11-22T09:53:26;5.20;1.00
14614;DHT22;7393;51.446;6.800;2023-11-22T09:55:58;5.20;1.00
14614;DHT22;7393;51.446;6.800;2023-11-22T09:58:25;5.20;1.00
14614;DHT22;7393;51.446;6.800;2023-11-22T10:00:55;5.20;1.00
14614;DHT22;7393;51.446;6.800;2023-11-22T10:03:23;5.20;99.90
14614;DHT22;7393;51.446;6.800;2023-11-22T10:05:51;5.30;99.90
14614;DHT22;7393;51.446;6.800;2023-11-22T10:08:19;5.30;99.90
14614;DHT22;7393;51.446;6.800;2023-11-22T10:10:49;5.30;99.90
14614;DHT22;7393;51.446;6.800;2023-11-22T10:13:16;5.30;99.90
14614;DHT22;7393;51.446;6.800;2023-11-22T10:15:45;5.30;99.90
14614;DHT22;7393;51.446;6.800;2023-11-22T10:18:13;5.40;99.90
14614;DHT22;7393;51.446;6.800;2023-11-22T10:20:41;5.40;99.90
14614;DHT22;7393;51.446;6.800;2023-11-22T10:23:10;5.40;99.90
14614;DHT22;7393;51.446;6.800;2023-11-22T10:25:43;5.40;99.90
14614;DHT22;7393;51.446;6.800;2023-11-22T10:28:10;5.40;99.90
14614;DHT22;7393;51.446;6.800;2023-11-22T10:30:37;5.50;1.00
14614;DHT22;7393;51.446;6.800;2023-11-22T10:33:06;5.60;34.60
14614;DHT22;7393;51.446;6.800;2023-11-22T10:35:33;5.60;1.00
14614;DHT22;7393;51.446;6.800;2023-11-22T10:37:59;5.60;1.00
14614;DHT22;7393;51.446;6.800;2023-11-22T10:40:30;5.70;99.90
14614;DHT22;7393;51.446;6.800;2023-11-22T10:42:57;5.70;99.90
14614;DHT22;7393;51.446;6.800;2023-11-22T10:45:26;5.70;99.90
14614;DHT22;7393;51.446;6.800;2023-11-22T10:47:56;5.70;1.00
14614;DHT22;7393;51.446;6.800;2023-11-22T10:50:23;5.70;1.00
14614;DHT22;7393;51.446;6.800;2023-11-22T10:52:52;5.80;1.00
14614;DHT22;7393;51.446;6.800;2023-11-22T10:55:21;5.80;1.00
14614;DHT22;7393;51.446;6.800;2023-11-22T10:57:56;5.90;1.00
14614;DHT22;7393;51.446;6.800;2023-11-22T11:00:24;6.00;99.90
14614;DHT22;7393;51.446;6.800;2023-11-22T11:02:59;6.00;99.90
14614;DHT22;7393;51.446;6.800;2023-11-22T11:05:29;6.00;99.90
14614;DHT22;7393;51.446;6.800;2023-11-22T11:08:02;6.00;1.00
14614;DHT22;7393;51.446;6.800;2023-11-22T11:10:38;6.00;1.00
14614;DHT22;7393;51.446;6.800;2023-11-22T11:13:07;6.10;1.00
14614;DHT22;7393;51.446;6.800;2023-11-22T11:15:35;6.10;1.00
14614;DHT22;7393;51.446;6.800;2023-11-22T11:18:02;6.20;1.00
14614;DHT22;7393;51.446;6.800;2023-11-22T11:20:32;6.20;99.90
14614;DHT22;7393;51.446;6.800;2023-11-22T11:23:01;6.30;99.90
14614;DHT22;7393;51.446;6.800;2023-11-22T11:25:32;6.30;99.90
14614;DHT22;7393;51.446;6.800;2023-11-22T11:27:59;6.40;1.00
14614;DHT22;7393;51.446;6.800;2023-11-22T11:30:43;6.40;1.00
14614;DHT22;7393;51.446;6.800;2023-11-22T11:33:11;6.40;99.90
14614;DHT22;7393;51.446;6.800;2023-11-22T11:35:42;6.40;1.00
14614;DHT22;7393;51.446;6.800;2023-11-22T11:38:12;6.40;99.90
14614;DHT22;7393;51.446;6.800;2023-11-22T11:40:40;6.40;1.00
14614;DHT22;7393;51.446;6.800;2023-11-22T11:43:07;6.40;99.90
14614;DHT22;7393;51.446;6.800;2023-11-22T11:45:38;6.40;99.90
14614;DHT22;7393;51.446;6.800;2023-11-22T11:48:07;6.40;1.00
14614;DHT22;7393;51.446;6.800;2023-11-22T11:50:34;6.40;1.00
14614;DHT22;7393;51.446;6.800;2023-11-22T11:53:01;6.50;30.10
14614;DHT22;7393;51.446;6.800;2023-11-22T11:55:28;6.50;1.00
14614;DHT22;7393;51.446;6.800;2023-11-22T11:57:55;6.60;99.90
14614;DHT22;7393;51.446;6.800;2023-11-22T12:00:22;6.60;99.90
14614;DHT22;7393;51.446;6.800;2023-11-22T12:02:50;6.60;1.00
14614;DHT22;7393;51.446;6.800;2023-11-22T12:05:20;6.60;1.00
14614;DHT22;7393;51.446;6.800;2023-11-22T12:07:47;6.60;1.00
14614;DHT22;7393;51.446;6.800;2023-11-22T12:10:14;6.60;1.00
14614;DHT22;7393;51.446;6.800;2023-11-22T12:12:43;6.60;1.00
14614;DHT22;7393;51.446;6.800;2023-11-22T12:15:11;6.60;99.90
14614;DHT22;7393;51.446;6.800;2023-11-22T12:17:40;6.60;1.00
14614;DHT22;7393;51.446;6.800;2023-11-22T12:20:14;6.60;99.90
14614;DHT22;7393;51.446;6.800;2023-11-22T12:22:44;6.60;99.90
14614;DHT22;7393;51.446;6.800;2023-11-22T12:25:11;6.60;1.00
14614;DHT22;7393;51.446;6.800;2023-11-22T12:27:39;6.60;99.90
14614;DHT22;7393;51.446;6.800;2023-11-22T12:30:08;6.70;99.90
14614;DHT22;7393;51.446;6.800;2023-11-22T12:32:38;6.70;99.90
14614;DHT22;7393;51.446;6.800;2023-11-22T12:35:06;6.80;1.00
14614;DHT22;7393;51.446;6.800;2023-11-22T12:37:34;6.80;1.00
14614;DHT22;7393;51.446;6.800;2023-11-22T12:40:09;6.80;1.00
14614;DHT22;7393;51.446;6.800;2023-11-22T12:42:47;6.80;1.00
14614;DHT22;7393;51.446;6.800;2023-11-22T12:45:22;6.90;1.00
14614;DHT22;7393;51.446;6.800;2023-11-22T12:47:49;6.90;1.00
14614;DHT22;7393;51.446;6.800;2023-11-22T12:50:33;6.90;1.00
14614;DHT22;7393;51.446;6.800;2023-11-22T12:53:09;6.90;1.00
14614;DHT22;7393;51.446;6.800;2023-11-22T12:55:41;7.00;1.00
14614;DHT22;7393;51.446;6.800;2023-11-22T12:58:09;7.00;1.00
14614;DHT22;7393;51.446;6.800;2023-11-22T13:00:36;7.00;99.90
14614;DHT22;7393;51.446;6.800;2023-11-22T13:03:05;7.00;99.90
14614;DHT22;7393;51.446;6.800;2023-11-22T13:05:32;7.10;99.90
14614;DHT22;7393;51.446;6.800;2023-11-22T13:07:58;7.10;99.90
14614;DHT22;7393;51.446;6.800;2023-11-22T13:10:25;7.10;99.90
14614;DHT22;7393;51.446;6.800;2023-11-22T13:12:54;7.10;99.90
14614;DHT22;7393;51.446;6.800;2023-11-22T13:15:22;7.10;99.90
14614;DHT22;7393;51.446;6.800;2023-11-22T13:17:51;7.10;99.90
14614;DHT22;7393;51.446;6.800;2023-11-22T13:20:21;7.20;99.90
14614;DHT22;7393;51.446;6.800;2023-11-22T13:22:48;7.20;79.00
14614;DHT22;7393;51.446;6.800;2023-11-22T13:25:16;7.10;76.90
14614;DHT22;7393;51.446;6.800;2023-11-22T13:27:44;7.20;80.90
14614;DHT22;7393;51.446;6.800;2023-11-22T13:30:13;7.30;69.80
14614;DHT22;7393;51.446;6.800;2023-11-22T13:32:41;7.40;76.20
14614;DHT22;7393;51.446;6.800;2023-11-22T13:35:09;7.40;83.10
14614;DHT22;7393;51.446;6.800;2023-11-22T13:37:41;7.40;51.30
14614;DHT22;7393;51.446;6.800;2023-11-22T13:40:10;7.40;49.30
14614;DHT22;7393;51.446;6.800;2023-11-22T13:42:40;7.50;38.40
14614;DHT22;7393;51.446;6.800;2023-11-22T13:45:08;7.50;21.80
14614;DHT22;7393;51.446;6.800;2023-11-22T13:47:36;7.50;15.60
14614;DHT22;7393;51.446;6.800;2023-11-22T13:50:04;7.60;9.00
14614;DHT22;7393;51.446;6.800;2023-11-22T13:52:32;7.60;3.80
14614;DHT22;7393;51.446;6.800;2023-11-22T13:54:58;7.50;1.00
14614;DHT22;7393;51.446;6.800;2023-11-22T13:57:26;7.60;1.00
14614;DHT22;7393;51.446;6.800;2023-11-22T13:59:53;7.60;1.00
14614;DHT22;7393;51.446;6.800;2023-11-22T14:02:20;7.50;1.00
14614;DHT22;7393;51.446;6.800;2023-11-22T14:04:49;7.50;1.00
14614;DHT22;7393;51.446;6.800;2023-11-22T14:07:16;7.50;1.00
14614;DHT22;7393;51.446;6.800;2023-11-22T14:09:43;7.50;21.50
14614;DHT22;7393;51.446;6.800;2023-11-22T14:12:12;7.50;1.00
14614;DHT22;7393;51.446;6.800;2023-11-22T14:14:39;7.50;1.00
14614;DHT22;7393;51.446;6.800;2023-11-22T14:17:06;7.50;1.00
14614;DHT22;7393;51.446;6.800;2023-11-22T14:19:32;7.50;1.00
14614;DHT22;7393;51.446;6.800;2023-11-22T14:22:01;7.40;1.00
14614;DHT22;7393;51.446;6.800;2023-11-22T14:24:27;7.50;1.00
14614;DHT22;7393;51.446;6.800;2023-11-22T14:26:55;7.50;1.00
14614;DHT22;7393;51.446;6.800;2023-11-22T14:29:25;7.50;1.00
14614;DHT22;7393;51.446;6.800;2023-11-22T14:31:52;7.60;1.00
14614;DHT22;7393;51.446;6.800;2023-11-22T14:34:19;7.50;1.00
14614;DHT22;7393;51.446;6.800;2023-11-22T14:36:46;7.50;1.00
14614;DHT22;7393;51.446;6.800;2023-11-22T14:39:14;7.50;1.00
14614;DHT22;7393;51.446;6.800;2023-11-22T14:41:41;7.60;1.00
14614;DHT22;7393;51.446;6.800;2023-11-22T14:44:08;7.50;1.00
14614;DHT22;7393;51.446;6.800;2023-11-22T14:46:35;7.60;1.00
14614;DHT22;7393;51.446;6.800;2023-11-22T14:49:02;7.60;1.00
14614;DHT22;7393;51.446;6.800;2023-11-22T14:51:29;7.50;1.00
14614;DHT22;7393;51.446;6.800;2023-11-22T14:53:56;7.50;1.00
14614;DHT22;7393;51.446;6.800;2023-11-22T14:56:24;7.50;1.00
14614;DHT22;7393;51.446;6.800;2023-11-22T14:58:51;7.50;1.00
14614;DHT22;7393;51.446;6.800;2023-11-22T15:01:20;7.50;1.00
14614;DHT22;7393;51.446;6.800;2023-11-22T15:03:48;7.50;1.00
14614;DHT22;7393;51.446;6.800;2023-11-22T15:06:17;7.50;1.00
14614;DHT22;7393;51.446;6.800;2023-11-22T15:08:43;7.50;1.00
14614;DHT22;7393;51.446;6.800;2023-11-22T15:11:10;7.40;1.00
14614;DHT22;7393;51.446;6.800;2023-11-22T15:13:39;7.40;1.00
14614;DHT22;7393;51.446;6.800;2023-11-22T15:16:07;7.40;1.00
14614;DHT22;7393;51.446;6.800;2023-11-22T15:18:33;7.40;1.00
14614;DHT22;7393;51.446;6.800;2023-11-22T15:21:14;7.30;2.90
14614;DHT22;7393;51.446;6.800;2023-11-22T15:23:41;7.30;14.80
14614;DHT22;7393;51.446;6.800;2023-11-22T15:26:08;7.30;22.90
14614;DHT22;7393;51.446;6.800;2023-11-22T15:28:35;7.30;46.20
14614;DHT22;7393;51.446;6.800;2023-11-22T15:31:03;7.30;52.70
14614;DHT22;7393;51.446;6.800;2023-11-22T15:33:30;7.30;99.90
14614;DHT22;7393;51.446;6.800;2023-11-22T15:35:57;7.20;99.90
14614;DHT22;7393;51.446;6.800;2023-11-22T15:38:24;7.30;99.90
14614;DHT22;7393;51.446;6.800;2023-11-22T15:40:50;7.30;99.90
14614;DHT22;7393;51.446;6.800;2023-11-22T15:43:17;7.30;99.90
14614;DHT22;7393;51.446;6.800;2023-11-22T15:45:45;7.30;99.90
14614;DHT22;7393;51.446;6.800;2023-11-22T15:48:14;7.30;99.90
14614;DHT22;7393;51.446;6.800;2023-11-22T15:50:40;7.20;99.90
14614;DHT22;7393;51.446;6.800;2023-11-22T15:53:07;7.20;99.90
14614;DHT22;7393;51.446;6.800;2023-11-22T15:55:38;7.20;1.00
14614;DHT22;7393;51.446;6.800;2023-11-22T15:58:05;7.20;1.00
14614;DHT22;7393;51.446;6.800;2023-11-22T16:00:32;7.20;99.90
14614;DHT22;7393;51.446;6.800;2023-11-22T16:02:58;7.20;99.90
14614;DHT22;7393;51.446;6.800;2023-11-22T16:05:26;7.20;99.90
14614;DHT22;7393;51.446;6.800;2023-11-22T16:07:54;7.20;99.90
14614;DHT22;7393;51.446;6.800;2023-11-22T16:10:21;7.20;99.90
14614;DHT22;7393;51.446;6.800;2023-11-22T16:12:47;7.20;99.90
14614;DHT22;7393;51.446;6.800;2023-11-22T16:15:15;7.20;99.90
14614;DHT22;7393;51.446;6.800;2023-11-22T16:17:42;7.10;99.90